Apj Shirin — 3EVS6 — position and weather

sailwx.info

Track history (hours):
 
Tides and Currents Weather Stations Pressure Air Temp Water Temp Dewpoint Dewpoint Depression Visibility Wind Speed Wind Dir Waves Ship Positions

Apj Shirin

Last reported at 2016-Apr-30 13:33 UTC. Time now 2016-May-01 00:23 UTC.
Position N 39°11' W 031°29'.

Length 189 m; draft 12.2 m.

Type: Cargo ship. MMSI: 373223000.

Date/timePositionNaut miles runAvg speedWind from/ knotsBaromVisibWave heightAir tempDewpointWater temp
2016-Apr-30 13:33N 39°11' W 031°29'1211.1
2016-Apr-30 12:27N 39°10' W 031°13'1010.9
2016-Apr-30 11:34N 39°10' W 031°01'3611.2
2016-Apr-30 08:21N 39°13' W 030°14'1111.2
2016-Apr-30 07:21N 39°14' W 029°60'910.8
2016-Apr-30 06:32N 39°14' W 029°48'1010.7
2016-Apr-30 05:33N 39°14' W 029°35'1110.5
2016-Apr-30 04:33N 39°15' W 029°22'1010.4
2016-Apr-30 03:33N 39°16' W 029°08'1110.6
2016-Apr-30 02:33N 39°17' W 028°54'1111.0
2016-Apr-30 01:34N 39°18' W 028°40'1111.0
2016-Apr-30 00:33N 39°19' W 028°26'1111.1
2016-Apr-29 23:33N 39°20' W 028°12'1110.7
2016-Apr-29 22:33N 39°20' W 027°58'1111.1
2016-Apr-29 21:33N 39°18' W 027°44'1110.8
2016-Apr-29 20:33N 39°16' W 027°30'1110.8
2016-Apr-29 19:33N 39°14' W 027°16'1110.8
2016-Apr-29 18:33N 39°13' W 027°03'  
2016-Apr-26 21:32N 36°49' W 010°50'1411.0
2016-Apr-26 20:17N 36°44' W 010°34'2111.2
2016-Apr-26 18:28N 36°37' W 010°10'1511.6
2016-Apr-26 17:12N 36°33' W 009°53'812.9
2016-Apr-26 16:33N 36°30' W 009°43'1812.2
2016-Apr-26 15:05N 36°23' W 009°22'611.0
2016-Apr-26 14:33N 36°21' W 009°15'1110.8
2016-Apr-26 13:29N 36°18' W 009°02'1010.7
2016-Apr-26 12:31N 36°14' W 008°50'16411.0
2016-Apr-25 21:33N 36°00' W 005°27'8 7.6
2016-Apr-25 20:33N 36°02' W 005°18'  
2016-Apr-22 20:19N 37°24' E 011°20'911.4
2016-Apr-22 19:33N 37°19' E 011°29'2311.7
2016-Apr-22 17:33N 37°07' E 011°54'1611.4
2016-Apr-22 16:08N 37°00' E 012°13'7711.0
2016-Apr-22 09:11N 36°35' E 013°43'810.8
2016-Apr-22 08:27N 36°35' E 013°53'1011.4
2016-Apr-22 07:33N 36°32' E 014°05'1211.6
2016-Apr-22 06:33N 36°28' E 014°19'1211.6
2016-Apr-22 05:33N 36°24' E 014°33'  
Track history (hours):
 
Tides and Currents Weather Stations Pressure Air Temp Water Temp Dewpoint Dewpoint Depression Visibility Wind Speed Wind Dir Waves Ship Positions

Apj Shirin

Last reported at 2016-Apr-30 13:33 UTC. Time now 2016-May-01 00:23 UTC.
Position N 39°11' W 031°29'.

Length 189 m; draft 12.2 m.

Type: Cargo ship. MMSI: 373223000.

Date/timePositionNaut miles runAvg speedWind from/ knotsBaromVisibWave heightAir tempDewpointWater temp
2016-Apr-30 13:33N 39°11' W 031°29'1211.1
2016-Apr-30 12:27N 39°10' W 031°13'1010.9
2016-Apr-30 11:34N 39°10' W 031°01'3611.2
2016-Apr-30 08:21N 39°13' W 030°14'1111.2
2016-Apr-30 07:21N 39°14' W 029°60'910.8
2016-Apr-30 06:32N 39°14' W 029°48'1010.7
2016-Apr-30 05:33N 39°14' W 029°35'1110.5
2016-Apr-30 04:33N 39°15' W 029°22'1010.4
2016-Apr-30 03:33N 39°16' W 029°08'1110.6
2016-Apr-30 02:33N 39°17' W 028°54'1111.0
2016-Apr-30 01:34N 39°18' W 028°40'1111.0
2016-Apr-30 00:33N 39°19' W 028°26'1111.1
2016-Apr-29 23:33N 39°20' W 028°12'1110.7
2016-Apr-29 22:33N 39°20' W 027°58'1111.1
2016-Apr-29 21:33N 39°18' W 027°44'1110.8
2016-Apr-29 20:33N 39°16' W 027°30'1110.8
2016-Apr-29 19:33N 39°14' W 027°16'1110.8
2016-Apr-29 18:33N 39°13' W 027°03'  
2016-Apr-26 21:32N 36°49' W 010°50'1411.0
2016-Apr-26 20:17N 36°44' W 010°34'2111.2
2016-Apr-26 18:28N 36°37' W 010°10'1511.6
2016-Apr-26 17:12N 36°33' W 009°53'812.9
2016-Apr-26 16:33N 36°30' W 009°43'1812.2
2016-Apr-26 15:05N 36°23' W 009°22'611.0
2016-Apr-26 14:33N 36°21' W 009°15'1110.8
2016-Apr-26 13:29N 36°18' W 009°02'1010.7
2016-Apr-26 12:31N 36°14' W 008°50'16411.0
2016-Apr-25 21:33N 36°00' W 005°27'8 7.6
2016-Apr-25 20:33N 36°02' W 005°18'  
2016-Apr-22 20:19N 37°24' E 011°20'911.4
2016-Apr-22 19:33N 37°19' E 011°29'2311.7
2016-Apr-22 17:33N 37°07' E 011°54'1611.4
2016-Apr-22 16:08N 37°00' E 012°13'7711.0
2016-Apr-22 09:11N 36°35' E 013°43'810.8
2016-Apr-22 08:27N 36°35' E 013°53'1011.4
2016-Apr-22 07:33N 36°32' E 014°05'1211.6
2016-Apr-22 06:33N 36°28' E 014°19'1211.6
2016-Apr-22 05:33N 36°24' E 014°33'  

Dump ship's entire track history